CIA weather

Ciampino–G. B. Pastine International Airport
Rome, Lazio, Italy

Public forecast

Using degrees Celsius for public forecast. Weather courtesy of forecast.io.

Current aviation weather report (METAR) for Ciampino–G. B. Pastine International Airport

Retrieved 2019/10/13 18:20 UTC (36 minutes ago):

LIRA 131820Z 14003KT CAVOK 18/15 Q1023

Aviation forecast (TAF) for Ciampino–G. B. Pastine International Airport

Retrieved 2019/10/13 18:00 UTC (56 minutes ago):

TAF LIRA 131700Z 1318/1418 VRB04KT 9999 FEW030 BECMG 1408/1410 15010KT